sensor_id;sensor_type;location;lat;lon;timestamp;temperature;humidity
21035;DHT22;10676;50.848;3.272;2023-04-25T00:01:20;9.20;99.90
21035;DHT22;10676;50.848;3.272;2023-04-25T00:03:47;9.20;99.90
21035;DHT22;10676;50.848;3.272;2023-04-25T00:06:13;9.20;99.90
21035;DHT22;10676;50.848;3.272;2023-04-25T00:08:40;9.20;99.90
21035;DHT22;10676;50.848;3.272;2023-04-25T00:11:05;9.20;99.90
21035;DHT22;10676;50.848;3.272;2023-04-25T00:13:31;9.20;99.90
21035;DHT22;10676;50.848;3.272;2023-04-25T00:15:58;9.20;99.90
21035;DHT22;10676;50.848;3.272;2023-04-25T00:18:25;9.20;99.90
21035;DHT22;10676;50.848;3.272;2023-04-25T00:20:54;9.20;99.90
21035;DHT22;10676;50.848;3.272;2023-04-25T00:23:20;9.20;99.90
21035;DHT22;10676;50.848;3.272;2023-04-25T00:25:48;9.20;99.90
21035;DHT22;10676;50.848;3.272;2023-04-25T00:28:14;9.20;99.90
21035;DHT22;10676;50.848;3.272;2023-04-25T00:30:41;9.20;99.90
21035;DHT22;10676;50.848;3.272;2023-04-25T00:33:07;9.10;99.90
21035;DHT22;10676;50.848;3.272;2023-04-25T00:35:33;9.10;99.90
21035;DHT22;10676;50.848;3.272;2023-04-25T00:37:59;9.10;99.90
21035;DHT22;10676;50.848;3.272;2023-04-25T00:40:25;9.00;99.90
21035;DHT22;10676;50.848;3.272;2023-04-25T00:42:52;9.00;99.90
21035;DHT22;10676;50.848;3.272;2023-04-25T00:45:18;9.00;99.90
21035;DHT22;10676;50.848;3.272;2023-04-25T00:47:44;8.90;99.90
21035;DHT22;10676;50.848;3.272;2023-04-25T00:50:11;8.90;99.90
21035;DHT22;10676;50.848;3.272;2023-04-25T00:52:42;8.90;99.90
21035;DHT22;10676;50.848;3.272;2023-04-25T00:55:10;8.90;99.90
21035;DHT22;10676;50.848;3.272;2023-04-25T00:57:36;8.80;99.90
21035;DHT22;10676;50.848;3.272;2023-04-25T01:00:03;8.80;99.90
21035;DHT22;10676;50.848;3.272;2023-04-25T01:02:32;8.80;99.90
21035;DHT22;10676;50.848;3.272;2023-04-25T01:04:58;8.80;99.90
21035;DHT22;10676;50.848;3.272;2023-04-25T01:07:24;8.70;99.90
21035;DHT22;10676;50.848;3.272;2023-04-25T01:09:52;8.70;99.90
21035;DHT22;10676;50.848;3.272;2023-04-25T01:12:17;8.70;99.90
21035;DHT22;10676;50.848;3.272;2023-04-25T01:14:44;8.70;99.90
21035;DHT22;10676;50.848;3.272;2023-04-25T01:17:10;8.70;99.90
21035;DHT22;10676;50.848;3.272;2023-04-25T01:19:36;8.60;99.90
21035;DHT22;10676;50.848;3.272;2023-04-25T01:22:02;8.60;99.90
21035;DHT22;10676;50.848;3.272;2023-04-25T01:24:30;8.60;99.90
21035;DHT22;10676;50.848;3.272;2023-04-25T01:26:56;8.60;99.90
21035;DHT22;10676;50.848;3.272;2023-04-25T01:29:23;8.60;99.90
21035;DHT22;10676;50.848;3.272;2023-04-25T01:31:51;8.50;99.90
21035;DHT22;10676;50.848;3.272;2023-04-25T01:34:17;8.60;99.90
21035;DHT22;10676;50.848;3.272;2023-04-25T01:36:43;8.50;99.90
21035;DHT22;10676;50.848;3.272;2023-04-25T01:39:09;8.50;99.90
21035;DHT22;10676;50.848;3.272;2023-04-25T01:41:35;8.50;99.90
21035;DHT22;10676;50.848;3.272;2023-04-25T01:44:01;8.50;99.90
21035;DHT22;10676;50.848;3.272;2023-04-25T01:46:27;8.50;99.90
21035;DHT22;10676;50.848;3.272;2023-04-25T01:48:53;8.50;99.90
21035;DHT22;10676;50.848;3.272;2023-04-25T01:51:18;8.50;99.90
21035;DHT22;10676;50.848;3.272;2023-04-25T01:53:44;8.40;99.90
21035;DHT22;10676;50.848;3.272;2023-04-25T01:56:10;8.40;99.90
21035;DHT22;10676;50.848;3.272;2023-04-25T01:58:36;8.40;99.90
21035;DHT22;10676;50.848;3.272;2023-04-25T02:01:02;8.30;99.90
21035;DHT22;10676;50.848;3.272;2023-04-25T02:03:27;8.30;99.90
21035;DHT22;10676;50.848;3.272;2023-04-25T02:05:53;8.30;99.90
21035;DHT22;10676;50.848;3.272;2023-04-25T02:08:18;8.30;99.90
21035;DHT22;10676;50.848;3.272;2023-04-25T02:10:44;8.20;99.90
21035;DHT22;10676;50.848;3.272;2023-04-25T02:13:10;8.20;99.90
21035;DHT22;10676;50.848;3.272;2023-04-25T02:15:36;8.20;99.90
21035;DHT22;10676;50.848;3.272;2023-04-25T02:18:01;8.10;99.90
21035;DHT22;10676;50.848;3.272;2023-04-25T02:20:29;8.10;99.90
21035;DHT22;10676;50.848;3.272;2023-04-25T02:22:55;8.10;99.90
21035;DHT22;10676;50.848;3.272;2023-04-25T02:25:21;8.10;99.90
21035;DHT22;10676;50.848;3.272;2023-04-25T02:27:48;8.10;99.90
21035;DHT22;10676;50.848;3.272;2023-04-25T02:30:14;8.10;99.90
21035;DHT22;10676;50.848;3.272;2023-04-25T02:32:40;8.00;99.90
21035;DHT22;10676;50.848;3.272;2023-04-25T02:35:07;8.00;99.90
21035;DHT22;10676;50.848;3.272;2023-04-25T02:37:34;8.00;99.90
21035;DHT22;10676;50.848;3.272;2023-04-25T02:39:59;8.00;99.90
21035;DHT22;10676;50.848;3.272;2023-04-25T02:42:26;8.00;99.90
21035;DHT22;10676;50.848;3.272;2023-04-25T02:44:52;7.90;99.90
21035;DHT22;10676;50.848;3.272;2023-04-25T02:47:18;7.90;99.90
21035;DHT22;10676;50.848;3.272;2023-04-25T02:49:43;7.90;99.90
21035;DHT22;10676;50.848;3.272;2023-04-25T02:52:09;7.80;99.90
21035;DHT22;10676;50.848;3.272;2023-04-25T02:54:35;7.80;99.90
21035;DHT22;10676;50.848;3.272;2023-04-25T02:57:00;7.80;99.90
21035;DHT22;10676;50.848;3.272;2023-04-25T02:59:28;7.80;99.90
21035;DHT22;10676;50.848;3.272;2023-04-25T03:01:54;7.80;99.90
21035;DHT22;10676;50.848;3.272;2023-04-25T03:04:20;7.70;99.90
21035;DHT22;10676;50.848;3.272;2023-04-25T03:06:46;7.70;99.90
21035;DHT22;10676;50.848;3.272;2023-04-25T03:09:12;7.70;99.90
21035;DHT22;10676;50.848;3.272;2023-04-25T03:11:39;7.70;99.90
21035;DHT22;10676;50.848;3.272;2023-04-25T03:14:04;7.60;99.90
21035;DHT22;10676;50.848;3.272;2023-04-25T03:16:30;7.60;99.90
21035;DHT22;10676;50.848;3.272;2023-04-25T03:18:56;7.60;99.90
21035;DHT22;10676;50.848;3.272;2023-04-25T03:21:22;7.60;99.90
21035;DHT22;10676;50.848;3.272;2023-04-25T03:23:48;7.60;99.90
21035;DHT22;10676;50.848;3.272;2023-04-25T03:26:14;7.60;99.90
21035;DHT22;10676;50.848;3.272;2023-04-25T03:28:39;7.60;99.90
21035;DHT22;10676;50.848;3.272;2023-04-25T03:31:05;7.60;99.90
21035;DHT22;10676;50.848;3.272;2023-04-25T03:33:31;7.60;99.90
21035;DHT22;10676;50.848;3.272;2023-04-25T03:35:57;7.60;99.90
21035;DHT22;10676;50.848;3.272;2023-04-25T03:38:22;7.60;99.90
21035;DHT22;10676;50.848;3.272;2023-04-25T03:40:49;7.60;99.90
21035;DHT22;10676;50.848;3.272;2023-04-25T03:43:16;7.60;99.90
21035;DHT22;10676;50.848;3.272;2023-04-25T03:45:41;7.60;99.90
21035;DHT22;10676;50.848;3.272;2023-04-25T03:48:07;7.60;99.90
21035;DHT22;10676;50.848;3.272;2023-04-25T03:50:33;7.60;99.90
21035;DHT22;10676;50.848;3.272;2023-04-25T03:52:58;7.70;99.90
21035;DHT22;10676;50.848;3.272;2023-04-25T03:55:24;7.70;99.90
21035;DHT22;10676;50.848;3.272;2023-04-25T03:57:50;7.70;99.90
21035;DHT22;10676;50.848;3.272;2023-04-25T04:00:16;7.80;99.90
21035;DHT22;10676;50.848;3.272;2023-04-25T04:02:42;7.80;99.90
21035;DHT22;10676;50.848;3.272;2023-04-25T04:05:07;7.80;99.90
21035;DHT22;10676;50.848;3.272;2023-04-25T04:07:33;7.80;99.90
21035;DHT22;10676;50.848;3.272;2023-04-25T04:10:11;7.80;99.90
21035;DHT22;10676;50.848;3.272;2023-04-25T04:12:37;7.90;99.90
21035;DHT22;10676;50.848;3.272;2023-04-25T04:15:04;7.80;99.90
21035;DHT22;10676;50.848;3.272;2023-04-25T04:17:31;7.90;99.90
21035;DHT22;10676;50.848;3.272;2023-04-25T04:19:56;7.90;99.90
21035;DHT22;10676;50.848;3.272;2023-04-25T04:22:23;7.90;99.90
21035;DHT22;10676;50.848;3.272;2023-04-25T04:24:49;7.90;99.90
21035;DHT22;10676;50.848;3.272;2023-04-25T04:27:17;7.90;99.90
21035;DHT22;10676;50.848;3.272;2023-04-25T04:29:43;7.90;99.90
21035;DHT22;10676;50.848;3.272;2023-04-25T04:32:09;7.90;99.90
21035;DHT22;10676;50.848;3.272;2023-04-25T04:34:35;7.90;99.90
21035;DHT22;10676;50.848;3.272;2023-04-25T04:37:01;7.90;99.90
21035;DHT22;10676;50.848;3.272;2023-04-25T04:39:26;7.90;99.90
21035;DHT22;10676;50.848;3.272;2023-04-25T04:41:52;7.90;99.90
21035;DHT22;10676;50.848;3.272;2023-04-25T04:44:19;7.90;99.90
21035;DHT22;10676;50.848;3.272;2023-04-25T04:46:45;7.90;99.90
21035;DHT22;10676;50.848;3.272;2023-04-25T04:49:12;7.80;99.90
21035;DHT22;10676;50.848;3.272;2023-04-25T04:51:39;7.80;99.90
21035;DHT22;10676;50.848;3.272;2023-04-25T04:54:06;7.80;99.90
21035;DHT22;10676;50.848;3.272;2023-04-25T04:56:32;7.80;99.90
21035;DHT22;10676;50.848;3.272;2023-04-25T04:58:58;7.80;99.90
21035;DHT22;10676;50.848;3.272;2023-04-25T05:01:25;7.90;99.90
21035;DHT22;10676;50.848;3.272;2023-04-25T05:03:51;7.90;99.90
21035;DHT22;10676;50.848;3.272;2023-04-25T05:06:18;7.90;99.90
21035;DHT22;10676;50.848;3.272;2023-04-25T05:08:44;7.90;99.90
21035;DHT22;10676;50.848;3.272;2023-04-25T05:11:10;7.90;99.90
21035;DHT22;10676;50.848;3.272;2023-04-25T05:13:36;7.90;99.90
21035;DHT22;10676;50.848;3.272;2023-04-25T05:16:02;7.90;99.90
21035;DHT22;10676;50.848;3.272;2023-04-25T05:18:28;7.90;99.90
21035;DHT22;10676;50.848;3.272;2023-04-25T05:20:53;7.90;99.90
21035;DHT22;10676;50.848;3.272;2023-04-25T05:23:19;8.00;99.90
21035;DHT22;10676;50.848;3.272;2023-04-25T05:25:45;8.10;99.90
21035;DHT22;10676;50.848;3.272;2023-04-25T05:28:12;8.10;99.90
21035;DHT22;10676;50.848;3.272;2023-04-25T05:30:38;8.20;99.90
21035;DHT22;10676;50.848;3.272;2023-04-25T05:33:03;8.30;99.90
21035;DHT22;10676;50.848;3.272;2023-04-25T05:35:29;8.40;99.90
21035;DHT22;10676;50.848;3.272;2023-04-25T05:37:55;8.50;99.90
21035;DHT22;10676;50.848;3.272;2023-04-25T05:40:21;8.70;99.90
21035;DHT22;10676;50.848;3.272;2023-04-25T05:42:46;8.80;99.90
21035;DHT22;10676;50.848;3.272;2023-04-25T05:45:12;8.90;99.90
21035;DHT22;10676;50.848;3.272;2023-04-25T05:47:38;9.00;99.90
21035;DHT22;10676;50.848;3.272;2023-04-25T05:50:04;9.10;99.90
21035;DHT22;10676;50.848;3.272;2023-04-25T05:52:30;9.10;99.90
21035;DHT22;10676;50.848;3.272;2023-04-25T05:54:56;9.20;99.90
21035;DHT22;10676;50.848;3.272;2023-04-25T05:57:26;9.20;99.90
21035;DHT22;10676;50.848;3.272;2023-04-25T05:59:53;9.20;99.90
21035;DHT22;10676;50.848;3.272;2023-04-25T06:02:19;9.30;99.90
21035;DHT22;10676;50.848;3.272;2023-04-25T06:04:46;9.40;99.90
21035;DHT22;10676;50.848;3.272;2023-04-25T06:07:12;9.40;99.90
21035;DHT22;10676;50.848;3.272;2023-04-25T06:09:38;9.50;99.90
21035;DHT22;10676;50.848;3.272;2023-04-25T06:12:05;9.60;99.90
21035;DHT22;10676;50.848;3.272;2023-04-25T06:14:31;9.70;99.90
21035;DHT22;10676;50.848;3.272;2023-04-25T06:16:57;9.80;99.90
21035;DHT22;10676;50.848;3.272;2023-04-25T06:19:22;9.90;99.90
21035;DHT22;10676;50.848;3.272;2023-04-25T06:21:48;9.90;99.90
21035;DHT22;10676;50.848;3.272;2023-04-25T06:24:13;9.90;99.90
21035;DHT22;10676;50.848;3.272;2023-04-25T06:26:39;10.00;99.90
21035;DHT22;10676;50.848;3.272;2023-04-25T06:29:05;10.00;99.90
21035;DHT22;10676;50.848;3.272;2023-04-25T06:31:30;10.00;99.90
21035;DHT22;10676;50.848;3.272;2023-04-25T06:33:58;10.00;99.90
21035;DHT22;10676;50.848;3.272;2023-04-25T06:36:24;10.00;99.90
21035;DHT22;10676;50.848;3.272;2023-04-25T06:38:51;10.00;99.90
21035;DHT22;10676;50.848;3.272;2023-04-25T06:41:20;10.10;99.90
21035;DHT22;10676;50.848;3.272;2023-04-25T06:43:46;10.20;99.90
21035;DHT22;10676;50.848;3.272;2023-04-25T06:46:12;10.30;99.90
21035;DHT22;10676;50.848;3.272;2023-04-25T06:48:37;10.40;99.90
21035;DHT22;10676;50.848;3.272;2023-04-25T06:51:03;10.50;99.90
21035;DHT22;10676;50.848;3.272;2023-04-25T06:53:29;10.60;99.90
21035;DHT22;10676;50.848;3.272;2023-04-25T06:55:55;10.70;99.90
21035;DHT22;10676;50.848;3.272;2023-04-25T06:58:20;10.80;99.90
21035;DHT22;10676;50.848;3.272;2023-04-25T07:00:46;10.90;99.90
21035;DHT22;10676;50.848;3.272;2023-04-25T07:03:12;11.00;99.90
21035;DHT22;10676;50.848;3.272;2023-04-25T07:05:37;11.00;99.90
21035;DHT22;10676;50.848;3.272;2023-04-25T07:08:03;11.10;99.90
21035;DHT22;10676;50.848;3.272;2023-04-25T07:10:29;11.20;99.90
21035;DHT22;10676;50.848;3.272;2023-04-25T07:12:55;11.30;99.90
21035;DHT22;10676;50.848;3.272;2023-04-25T07:15:20;11.40;99.90
21035;DHT22;10676;50.848;3.272;2023-04-25T07:17:46;11.50;99.90
21035;DHT22;10676;50.848;3.272;2023-04-25T07:20:12;11.70;99.90
21035;DHT22;10676;50.848;3.272;2023-04-25T07:22:37;11.90;99.90
21035;DHT22;10676;50.848;3.272;2023-04-25T07:25:03;12.20;99.90
21035;DHT22;10676;50.848;3.272;2023-04-25T07:27:30;12.50;99.90
21035;DHT22;10676;50.848;3.272;2023-04-25T07:29:56;12.80;99.90
21035;DHT22;10676;50.848;3.272;2023-04-25T07:32:22;13.00;99.90
21035;DHT22;10676;50.848;3.272;2023-04-25T07:34:47;13.10;99.90
21035;DHT22;10676;50.848;3.272;2023-04-25T07:37:13;13.40;99.90
21035;DHT22;10676;50.848;3.272;2023-04-25T07:39:39;13.80;99.90
21035;DHT22;10676;50.848;3.272;2023-04-25T07:42:05;14.20;99.90
21035;DHT22;10676;50.848;3.272;2023-04-25T07:44:34;14.80;99.90
21035;DHT22;10676;50.848;3.272;2023-04-25T07:47:05;15.30;99.90
21035;DHT22;10676;50.848;3.272;2023-04-25T07:49:33;15.80;99.90
21035;DHT22;10676;50.848;3.272;2023-04-25T07:52:00;16.00;99.90
21035;DHT22;10676;50.848;3.272;2023-04-25T07:54:25;16.10;99.90
21035;DHT22;10676;50.848;3.272;2023-04-25T07:56:51;16.30;99.90
21035;DHT22;10676;50.848;3.272;2023-04-25T07:59:17;16.60;99.90
21035;DHT22;10676;50.848;3.272;2023-04-25T08:01:42;17.20;99.90
21035;DHT22;10676;50.848;3.272;2023-04-25T08:04:08;18.00;99.90
21035;DHT22;10676;50.848;3.272;2023-04-25T08:06:34;18.90;99.90
21035;DHT22;10676;50.848;3.272;2023-04-25T08:09:00;19.80;99.90
21035;DHT22;10676;50.848;3.272;2023-04-25T08:11:26;20.50;99.10
21035;DHT22;10676;50.848;3.272;2023-04-25T08:13:51;20.60;97.50
21035;DHT22;10676;50.848;3.272;2023-04-25T08:16:17;21.00;95.80
21035;DHT22;10676;50.848;3.272;2023-04-25T08:18:42;21.40;95.40
21035;DHT22;10676;50.848;3.272;2023-04-25T08:21:08;21.80;92.70
21035;DHT22;10676;50.848;3.272;2023-04-25T08:23:36;21.60;92.20
21035;DHT22;10676;50.848;3.272;2023-04-25T08:26:03;21.30;91.80
21035;DHT22;10676;50.848;3.272;2023-04-25T08:28:28;20.60;92.60
21035;DHT22;10676;50.848;3.272;2023-04-25T08:30:54;19.60;94.40
21035;DHT22;10676;50.848;3.272;2023-04-25T08:33:20;18.40;96.10
21035;DHT22;10676;50.848;3.272;2023-04-25T08:35:45;17.00;98.00
21035;DHT22;10676;50.848;3.272;2023-04-25T08:38:11;15.70;99.90
21035;DHT22;10676;50.848;3.272;2023-04-25T08:40:38;14.60;99.90
21035;DHT22;10676;50.848;3.272;2023-04-25T08:43:06;13.70;99.90
21035;DHT22;10676;50.848;3.272;2023-04-25T08:45:39;13.00;99.90
21035;DHT22;10676;50.848;3.272;2023-04-25T08:48:10;12.60;99.90
21035;DHT22;10676;50.848;3.272;2023-04-25T08:50:49;12.30;99.90
21035;DHT22;10676;50.848;3.272;2023-04-25T08:53:25;12.20;99.90
21035;DHT22;10676;50.848;3.272;2023-04-25T08:55:53;12.30;99.90
21035;DHT22;10676;50.848;3.272;2023-04-25T08:58:19;12.50;99.90
21035;DHT22;10676;50.848;3.272;2023-04-25T09:00:49;12.70;99.90
21035;DHT22;10676;50.848;3.272;2023-04-25T09:03:16;13.00;99.90
21035;DHT22;10676;50.848;3.272;2023-04-25T09:05:42;13.40;99.90
21035;DHT22;10676;50.848;3.272;2023-04-25T09:08:07;13.80;99.90
21035;DHT22;10676;50.848;3.272;2023-04-25T09:10:34;14.40;99.90
21035;DHT22;10676;50.848;3.272;2023-04-25T09:15:32;15.80;99.90
21035;DHT22;10676;50.848;3.272;2023-04-25T09:17:59;16.40;99.90
21035;DHT22;10676;50.848;3.272;2023-04-25T09:20:25;16.90;99.90
21035;DHT22;10676;50.848;3.272;2023-04-25T09:23:04;17.20;99.90
21035;DHT22;10676;50.848;3.272;2023-04-25T09:25:35;17.20;99.90
21035;DHT22;10676;50.848;3.272;2023-04-25T09:28:05;16.70;99.90
21035;DHT22;10676;50.848;3.272;2023-04-25T09:30:33;16.10;99.90
21035;DHT22;10676;50.848;3.272;2023-04-25T09:33:10;15.40;99.90
21035;DHT22;10676;50.848;3.272;2023-04-25T09:35:40;14.80;99.90
21035;DHT22;10676;50.848;3.272;2023-04-25T09:38:14;14.20;99.90
21035;DHT22;10676;50.848;3.272;2023-04-25T09:40:45;14.20;99.90
21035;DHT22;10676;50.848;3.272;2023-04-25T09:43:20;14.90;99.90
21035;DHT22;10676;50.848;3.272;2023-04-25T09:45:47;16.00;99.90
21035;DHT22;10676;50.848;3.272;2023-04-25T09:48:22;17.10;99.90
21035;DHT22;10676;50.848;3.272;2023-04-25T09:51:17;18.20;99.90
21035;DHT22;10676;50.848;3.272;2023-04-25T09:53:46;19.30;99.90
21035;DHT22;10676;50.848;3.272;2023-04-25T09:56:15;20.10;96.50
21035;DHT22;10676;50.848;3.272;2023-04-25T09:58:41;20.90;93.90
21035;DHT22;10676;50.848;3.272;2023-04-25T10:01:11;21.80;91.30
21035;DHT22;10676;50.848;3.272;2023-04-25T10:03:38;22.50;84.10
21035;DHT22;10676;50.848;3.272;2023-04-25T10:06:12;22.20;80.90
21035;DHT22;10676;50.848;3.272;2023-04-25T10:08:40;21.40;81.00
21035;DHT22;10676;50.848;3.272;2023-04-25T10:11:08;20.50;83.30
21035;DHT22;10676;50.848;3.272;2023-04-25T10:13:35;20.20;85.30
21035;DHT22;10676;50.848;3.272;2023-04-25T10:16:03;20.70;87.10
21035;DHT22;10676;50.848;3.272;2023-04-25T10:18:29;21.50;81.00
21035;DHT22;10676;50.848;3.272;2023-04-25T10:21:01;21.50;77.50
21035;DHT22;10676;50.848;3.272;2023-04-25T10:23:27;21.00;76.70
21035;DHT22;10676;50.848;3.272;2023-04-25T10:25:54;20.10;78.10
21035;DHT22;10676;50.848;3.272;2023-04-25T10:28:21;19.60;80.70
21035;DHT22;10676;50.848;3.272;2023-04-25T10:31:07;19.80;80.80
21035;DHT22;10676;50.848;3.272;2023-04-25T10:33:40;20.80;80.60
21035;DHT22;10676;50.848;3.272;2023-04-25T10:36:18;21.30;78.60
21035;DHT22;10676;50.848;3.272;2023-04-25T10:38:45;21.70;81.10
21035;DHT22;10676;50.848;3.272;2023-04-25T10:41:12;21.20;81.20
21035;DHT22;10676;50.848;3.272;2023-04-25T10:43:45;20.50;83.20
21035;DHT22;10676;50.848;3.272;2023-04-25T10:46:26;19.70;84.10
21035;DHT22;10676;50.848;3.272;2023-04-25T10:48:57;18.80;85.40
21035;DHT22;10676;50.848;3.272;2023-04-25T10:51:28;17.90;87.90
21035;DHT22;10676;50.848;3.272;2023-04-25T10:54:04;17.20;89.50
21035;DHT22;10676;50.848;3.272;2023-04-25T10:56:32;16.50;90.70
21035;DHT22;10676;50.848;3.272;2023-04-25T10:59:08;16.00;91.50
21035;DHT22;10676;50.848;3.272;2023-04-25T11:01:48;15.80;91.80
21035;DHT22;10676;50.848;3.272;2023-04-25T11:04:24;15.70;92.00
21035;DHT22;10676;50.848;3.272;2023-04-25T11:09:41;16.40;91.90
21035;DHT22;10676;50.848;3.272;2023-04-25T11:12:10;17.60;90.80
21035;DHT22;10676;50.848;3.272;2023-04-25T11:14:37;18.40;89.10
21035;DHT22;10676;50.848;3.272;2023-04-25T11:17:03;19.00;87.90
21035;DHT22;10676;50.848;3.272;2023-04-25T11:19:29;19.80;86.60
21035;DHT22;10676;50.848;3.272;2023-04-25T11:22:01;20.60;82.20
21035;DHT22;10676;50.848;3.272;2023-04-25T11:24:32;21.10;80.10
21035;DHT22;10676;50.848;3.272;2023-04-25T11:27:00;21.20;78.70
21035;DHT22;10676;50.848;3.272;2023-04-25T11:29:30;21.00;78.60
21035;DHT22;10676;50.848;3.272;2023-04-25T11:31:56;20.90;78.30
21035;DHT22;10676;50.848;3.272;2023-04-25T11:34:29;20.90;76.90
21035;DHT22;10676;50.848;3.272;2023-04-25T11:36:59;20.70;76.70
21035;DHT22;10676;50.848;3.272;2023-04-25T11:39:26;20.40;74.70
21035;DHT22;10676;50.848;3.272;2023-04-25T11:41:52;20.00;74.10
21035;DHT22;10676;50.848;3.272;2023-04-25T11:44:19;19.40;74.20
21035;DHT22;10676;50.848;3.272;2023-04-25T11:46:46;19.00;75.40
21035;DHT22;10676;50.848;3.272;2023-04-25T11:49:13;19.00;74.30
21035;DHT22;10676;50.848;3.272;2023-04-25T11:51:43;19.40;74.10
21035;DHT22;10676;50.848;3.272;2023-04-25T11:54:10;20.00;74.30
21035;DHT22;10676;50.848;3.272;2023-04-25T11:56:35;20.70;70.90
21035;DHT22;10676;50.848;3.272;2023-04-25T11:59:03;21.30;70.80
21035;DHT22;10676;50.848;3.272;2023-04-25T12:01:31;21.90;67.90
21035;DHT22;10676;50.848;3.272;2023-04-25T12:03:58;21.80;64.30
21035;DHT22;10676;50.848;3.272;2023-04-25T12:06:30;21.30;64.10
21035;DHT22;10676;50.848;3.272;2023-04-25T12:09:03;20.60;64.30
21035;DHT22;10676;50.848;3.272;2023-04-25T12:11:30;19.80;65.20
21035;DHT22;10676;50.848;3.272;2023-04-25T12:14:04;19.30;68.70
21035;DHT22;10676;50.848;3.272;2023-04-25T12:16:40;19.40;68.40
21035;DHT22;10676;50.848;3.272;2023-04-25T12:19:06;19.90;69.10
21035;DHT22;10676;50.848;3.272;2023-04-25T12:21:32;20.70;67.10
21035;DHT22;10676;50.848;3.272;2023-04-25T12:24:21;21.20;66.70
21035;DHT22;10676;50.848;3.272;2023-04-25T12:29:34;21.00;66.20
21035;DHT22;10676;50.848;3.272;2023-04-25T12:32:00;20.30;68.80
21035;DHT22;10676;50.848;3.272;2023-04-25T12:34:27;19.70;71.30
21035;DHT22;10676;50.848;3.272;2023-04-25T12:36:54;19.10;73.30
21035;DHT22;10676;50.848;3.272;2023-04-25T12:39:22;18.50;76.90
21035;DHT22;10676;50.848;3.272;2023-04-25T12:41:49;17.90;78.50
21035;DHT22;10676;50.848;3.272;2023-04-25T12:44:15;17.40;80.90
21035;DHT22;10676;50.848;3.272;2023-04-25T12:46:41;17.00;83.40
21035;DHT22;10676;50.848;3.272;2023-04-25T12:49:08;16.90;84.60
21035;DHT22;10676;50.848;3.272;2023-04-25T12:51:34;17.20;83.40
21035;DHT22;10676;50.848;3.272;2023-04-25T12:54:01;17.40;84.40
21035;DHT22;10676;50.848;3.272;2023-04-25T12:56:27;17.70;84.00
21035;DHT22;10676;50.848;3.272;2023-04-25T12:58:53;18.00;82.40
21035;DHT22;10676;50.848;3.272;2023-04-25T13:01:19;18.20;82.90
21035;DHT22;10676;50.848;3.272;2023-04-25T13:03:53;18.50;81.60
21035;DHT22;10676;50.848;3.272;2023-04-25T13:06:26;18.80;79.70
21035;DHT22;10676;50.848;3.272;2023-04-25T13:08:51;19.10;79.00
21035;DHT22;10676;50.848;3.272;2023-04-25T13:11:17;19.10;78.60
21035;DHT22;10676;50.848;3.272;2023-04-25T13:13:43;19.00;79.10
21035;DHT22;10676;50.848;3.272;2023-04-25T13:16:10;18.90;77.40
21035;DHT22;10676;50.848;3.272;2023-04-25T13:18:36;18.70;77.30
21035;DHT22;10676;50.848;3.272;2023-04-25T13:21:02;18.60;78.00
21035;DHT22;10676;50.848;3.272;2023-04-25T13:23:29;18.50;77.90
21035;DHT22;10676;50.848;3.272;2023-04-25T13:25:55;18.50;76.90
21035;DHT22;10676;50.848;3.272;2023-04-25T13:28:23;18.50;76.40
21035;DHT22;10676;50.848;3.272;2023-04-25T13:30:49;18.60;76.30
21035;DHT22;10676;50.848;3.272;2023-04-25T13:33:15;18.70;76.00
21035;DHT22;10676;50.848;3.272;2023-04-25T13:35:41;18.70;75.50
21035;DHT22;10676;50.848;3.272;2023-04-25T13:38:07;18.80;75.30
21035;DHT22;10676;50.848;3.272;2023-04-25T13:40:34;18.80;74.70
21035;DHT22;10676;50.848;3.272;2023-04-25T13:43:00;18.80;74.40
21035;DHT22;10676;50.848;3.272;2023-04-25T13:45:26;18.80;73.80
21035;DHT22;10676;50.848;3.272;2023-04-25T13:47:52;18.90;73.70
21035;DHT22;10676;50.848;3.272;2023-04-25T13:50:18;18.70;73.80
21035;DHT22;10676;50.848;3.272;2023-04-25T13:52:43;18.70;74.60
21035;DHT22;10676;50.848;3.272;2023-04-25T13:55:09;18.70;73.90
21035;DHT22;10676;50.848;3.272;2023-04-25T13:57:36;18.80;73.80
21035;DHT22;10676;50.848;3.272;2023-04-25T14:00:04;18.80;73.50
21035;DHT22;10676;50.848;3.272;2023-04-25T14:02:35;18.90;73.50
21035;DHT22;10676;50.848;3.272;2023-04-25T14:05:01;19.00;72.80
21035;DHT22;10676;50.848;3.272;2023-04-25T14:07:27;19.00;73.00
21035;DHT22;10676;50.848;3.272;2023-04-25T14:09:52;19.00;72.60
21035;DHT22;10676;50.848;3.272;2023-04-25T14:12:18;19.20;71.70
21035;DHT22;10676;50.848;3.272;2023-04-25T14:14:44;19.30;71.30
21035;DHT22;10676;50.848;3.272;2023-04-25T14:17:10;19.20;71.30
21035;DHT22;10676;50.848;3.272;2023-04-25T14:19:36;19.30;71.60
21035;DHT22;10676;50.848;3.272;2023-04-25T14:22:03;19.40;71.70
21035;DHT22;10676;50.848;3.272;2023-04-25T14:24:29;19.50;71.00
21035;DHT22;10676;50.848;3.272;2023-04-25T14:26:55;19.70;69.50
21035;DHT22;10676;50.848;3.272;2023-04-25T14:29:21;19.70;69.20
21035;DHT22;10676;50.848;3.272;2023-04-25T14:31:47;19.90;70.50
21035;DHT22;10676;50.848;3.272;2023-04-25T14:34:13;20.10;70.00
21035;DHT22;10676;50.848;3.272;2023-04-25T14:36:38;20.10;69.30
21035;DHT22;10676;50.848;3.272;2023-04-25T14:39:04;19.90;70.70
21035;DHT22;10676;50.848;3.272;2023-04-25T14:41:32;19.60;71.90
21035;DHT22;10676;50.848;3.272;2023-04-25T14:43:58;19.30;71.60
21035;DHT22;10676;50.848;3.272;2023-04-25T14:46:24;19.00;71.20
21035;DHT22;10676;50.848;3.272;2023-04-25T14:48:50;18.60;72.60
21035;DHT22;10676;50.848;3.272;2023-04-25T14:51:16;18.30;74.60
21035;DHT22;10676;50.848;3.272;2023-04-25T14:53:41;18.00;75.00
21035;DHT22;10676;50.848;3.272;2023-04-25T14:56:07;17.80;75.50
21035;DHT22;10676;50.848;3.272;2023-04-25T14:58:34;17.60;75.50
21035;DHT22;10676;50.848;3.272;2023-04-25T15:01:00;17.50;77.20
21035;DHT22;10676;50.848;3.272;2023-04-25T15:03:26;17.40;76.30
21035;DHT22;10676;50.848;3.272;2023-04-25T15:05:54;17.30;77.20
21035;DHT22;10676;50.848;3.272;2023-04-25T15:08:20;17.30;76.40
21035;DHT22;10676;50.848;3.272;2023-04-25T15:10:46;17.30;76.40
21035;DHT22;10676;50.848;3.272;2023-04-25T15:13:12;17.20;76.10
21035;DHT22;10676;50.848;3.272;2023-04-25T15:15:38;17.10;77.40
21035;DHT22;10676;50.848;3.272;2023-04-25T15:18:04;17.00;76.60
21035;DHT22;10676;50.848;3.272;2023-04-25T15:20:30;17.00;76.30
21035;DHT22;10676;50.848;3.272;2023-04-25T15:22:56;17.00;77.30
21035;DHT22;10676;50.848;3.272;2023-04-25T15:25:22;17.10;76.90
21035;DHT22;10676;50.848;3.272;2023-04-25T15:27:48;17.20;76.90
21035;DHT22;10676;50.848;3.272;2023-04-25T15:30:16;17.30;77.80
21035;DHT22;10676;50.848;3.272;2023-04-25T15:32:46;17.30;77.50
21035;DHT22;10676;50.848;3.272;2023-04-25T15:35:12;17.40;77.30
21035;DHT22;10676;50.848;3.272;2023-04-25T15:37:38;17.40;76.70
21035;DHT22;10676;50.848;3.272;2023-04-25T15:40:32;17.50;77.10
21035;DHT22;10676;50.848;3.272;2023-04-25T15:43:05;17.80;77.70
21035;DHT22;10676;50.848;3.272;2023-04-25T15:45:31;18.30;75.50